Paderewski — 5BMF4 — position and weather

sailwx.info

Track history (hours):
 
Tides and Currents Weather Stations Pressure Air Temp Water Temp Dewpoint Dewpoint Depression Visibility Wind Speed Wind Dir Waves Ship Positions

Paderewski

Last reported at 2018-May-26 16:37 UTC. Time now 2018-May-27 12:03 UTC.
Position N 38°22' E 121°26'.

Length 190 m; draft 8 m.

Type: Ship. MMSI: 210638000.

Date/timePositionNaut miles runAvg speedWind from/ knotsBaromVisibWave heightAir tempDewpointWater temp
2018-May-26 16:37N 38°22' E 121°26'615.9
2018-May-26 16:13N 38°25' E 121°19'  
2018-May-24 04:27N 38°52' E 118°16'612.9
2018-May-24 03:59N 38°51' E 118°24'713.8
2018-May-24 03:30N 38°50' E 118°32'4814.2
2018-May-24 00:08N 38°45' E 119°34'214.7
2018-May-23 23:59N 38°45' E 119°36'2714.5
2018-May-23 22:05N 38°42' E 120°11'114.1
2018-May-23 22:00N 38°42' E 120°13'8513.4
2018-May-23 15:40N 38°21' E 121°58'2413.9
2018-May-23 13:57N 38°11' E 122°26'42512.7
2018-May-22 04:22N 31°06' E 122°26'610.9
2018-May-22 03:51N 31°06' E 122°19'3911.9
2018-May-22 00:35N 31°24' E 121°39'  
2018-May-17 17:09N 31°24' E 121°38'0 0.0
2018-May-17 16:51N 31°24' E 121°38'0 0.0
2018-May-17 16:30N 31°24' E 121°38'0 0.0
2018-May-17 15:54N 31°24' E 121°38'0 0.0
2018-May-17 15:27N 31°24' E 121°38'  
Track history (hours):
 
Tides and Currents Weather Stations Pressure Air Temp Water Temp Dewpoint Dewpoint Depression Visibility Wind Speed Wind Dir Waves Ship Positions

Paderewski

Last reported at 2018-May-26 16:37 UTC. Time now 2018-May-27 12:03 UTC.
Position N 38°22' E 121°26'.

Length 190 m; draft 8 m.

Type: Ship. MMSI: 210638000.

Date/timePositionNaut miles runAvg speedWind from/ knotsBaromVisibWave heightAir tempDewpointWater temp
2018-May-26 16:37N 38°22' E 121°26'615.9
2018-May-26 16:13N 38°25' E 121°19'  
2018-May-24 04:27N 38°52' E 118°16'612.9
2018-May-24 03:59N 38°51' E 118°24'713.8
2018-May-24 03:30N 38°50' E 118°32'4814.2
2018-May-24 00:08N 38°45' E 119°34'214.7
2018-May-23 23:59N 38°45' E 119°36'2714.5
2018-May-23 22:05N 38°42' E 120°11'114.1
2018-May-23 22:00N 38°42' E 120°13'8513.4
2018-May-23 15:40N 38°21' E 121°58'2413.9
2018-May-23 13:57N 38°11' E 122°26'42512.7
2018-May-22 04:22N 31°06' E 122°26'610.9
2018-May-22 03:51N 31°06' E 122°19'3911.9
2018-May-22 00:35N 31°24' E 121°39'  
2018-May-17 17:09N 31°24' E 121°38'0 0.0
2018-May-17 16:51N 31°24' E 121°38'0 0.0
2018-May-17 16:30N 31°24' E 121°38'0 0.0
2018-May-17 15:54N 31°24' E 121°38'0 0.0
2018-May-17 15:27N 31°24' E 121°38'  

Dump ship's entire track history